Time;durP1;ratioP1;P1;durP2;ratioP2;P2;SDS_P1;SDS_P2;PMS_P1;PMS_P2;Temp;Humidity;BMP_temperature;BMP_pressure;BME280_temperature;BME280_humidity;BME280_pressure;Samples;Min_cycle;Max_cycle;Signal;HPM_P1;HPM_P2
2022/10/25 00:02:09;;;;;;;2.90;2.70;;;;;;;12.30;100.00;96961.63;5084694;28;20296;-59
2022/10/25 00:04:35;;;;;;;3.50;3.20;;;;;;;12.29;100.00;96959.97;5084550;28;20290;-60
2022/10/25 00:07:02;;;;;;;4.40;3.37;;;;;;;12.32;100.00;96962.34;5097465;28;20230;-60
2022/10/25 00:09:29;;;;;;;4.07;3.47;;;;;;;12.30;100.00;96946.56;5107846;28;20194;-61
2022/10/25 00:11:56;;;;;;;4.60;3.53;;;;;;;12.30;100.00;96957.16;5107473;28;20206;-60
2022/10/25 00:14:24;;;;;;;3.70;3.30;;;;;;;12.32;100.00;96944.59;5084618;28;20305;-60
2022/10/25 00:16:51;;;;;;;5.67;3.77;;;;;;;12.34;100.00;96942.63;5084651;28;20278;-60
2022/10/25 00:19:17;;;;;;;5.00;3.60;;;;;;;12.32;100.00;96939.31;5084444;28;20241;-59
2022/10/25 00:21:44;;;;;;;4.07;3.30;;;;;;;12.35;100.00;96939.00;5084725;28;20293;-60
2022/10/25 00:24:12;;;;;;;3.93;3.30;;;;;;;12.37;100.00;96954.75;5084492;28;20298;-59
2022/10/25 00:26:40;;;;;;;4.17;3.10;;;;;;;12.37;100.00;96952.09;5085008;28;20290;-61
2022/10/25 00:29:06;;;;;;;3.40;2.93;;;;;;;12.38;100.00;96938.72;5084971;28;20193;-60
2022/10/25 00:31:34;;;;;;;3.73;3.03;;;;;;;12.38;100.00;96948.47;5084363;28;21346;-60
2022/10/25 00:34:01;;;;;;;3.70;3.40;;;;;;;12.40;100.00;96946.50;5084741;28;20296;-59
2022/10/25 00:36:28;;;;;;;5.87;2.83;;;;;;;12.39;100.00;96947.50;5084665;28;20205;-60
2022/10/25 00:38:57;;;;;;;3.73;3.10;;;;;;;12.38;100.00;96959.09;5084352;28;20305;-60
2022/10/25 00:41:26;;;;;;;5.23;3.30;;;;;;;12.40;100.00;96957.94;5084562;28;20301;-61
2022/10/25 00:43:55;;;;;;;5.90;3.47;;;;;;;12.37;100.00;96960.91;5084251;28;20537;-59
2022/10/25 00:46:25;;;;;;;4.87;3.57;;;;;;;12.39;100.00;96960.78;5083301;28;20297;-60
2022/10/25 00:48:58;;;;;;;2.93;2.73;;;;;;;12.37;100.00;96974.16;5084359;28;20237;-59
2022/10/25 00:51:30;;;;;;;3.60;3.20;;;;;;;12.36;100.00;96977.78;5084161;28;20745;-60
2022/10/25 00:53:57;;;;;;;4.03;3.20;;;;;;;12.39;100.00;96976.69;5084923;28;20229;-60
2022/10/25 00:56:26;;;;;;;4.63;2.93;;;;;;;12.39;100.00;96964.25;5083652;28;20660;-60
2022/10/25 00:58:56;;;;;;;3.37;2.80;;;;;;;12.42;100.00;96955.16;5083680;28;20205;-60
2022/10/25 01:01:24;;;;;;;2.83;2.63;;;;;;;12.43;100.00;96965.59;5084795;28;21415;-59
2022/10/25 01:03:54;;;;;;;3.40;2.40;;;;;;;12.44;100.00;96958.50;5085094;28;20699;-60
2022/10/25 01:06:24;;;;;;;4.57;2.33;;;;;;;12.44;100.00;96959.34;5085794;28;20197;-60
2022/10/25 01:08:52;;;;;;;3.00;2.47;;;;;;;12.47;100.00;96968.81;5089374;28;20289;-61
2022/10/25 01:11:19;;;;;;;3.00;2.70;;;;;;;12.47;100.00;96974.09;5103502;28;20610;-59
2022/10/25 01:13:47;;;;;;;4.17;2.80;;;;;;;12.48;100.00;96973.13;5105155;28;20233;-60
2022/10/25 01:16:18;;;;;;;3.37;3.03;;;;;;;12.47;100.00;96979.41;5104759;28;20218;-60
2022/10/25 01:18:50;;;;;;;2.83;2.60;;;;;;;12.45;100.00;96971.63;5101635;28;20217;-62
2022/10/25 01:21:39;;;;;;;3.47;2.70;;;;;;;12.44;100.00;96974.41;5097065;28;20724;-60
2022/10/25 01:24:43;;;;;;;3.93;2.97;;;;;;;12.44;100.00;96963.81;5100280;28;20221;-62
2022/10/25 01:27:41;;;;;;;3.03;2.40;;;;;;;12.44;100.00;96969.09;5096870;28;20664;-59
2022/10/25 01:30:12;;;;;;;3.40;2.50;;;;;;;12.49;100.00;96948.28;5095440;28;20304;-60
2022/10/25 01:32:44;;;;;;;2.83;2.63;;;;;;;12.47;100.00;96940.47;5100863;28;20186;-60
2022/10/25 01:35:17;;;;;;;5.40;3.33;;;;;;;12.49;100.00;96935.03;5094334;28;20222;-60
2022/10/25 01:37:54;;;;;;;3.97;3.27;;;;;;;12.49;100.00;96942.97;5082946;28;20201;-60
2022/10/25 01:40:24;;;;;;;4.30;3.20;;;;;;;12.51;100.00;96942.81;5082460;28;20277;-60
2022/10/25 01:42:56;;;;;;;5.17;2.77;;;;;;;12.53;100.00;96941.72;5083333;28;20293;-61
2022/10/25 01:45:26;;;;;;;3.17;2.80;;;;;;;12.54;100.00;96930.09;5086314;28;21104;-59
2022/10/25 01:48:00;;;;;;;3.13;2.83;;;;;;;12.49;100.00;96929.72;5082979;28;20213;-60
2022/10/25 01:50:30;;;;;;;4.03;2.87;;;;;;;12.51;100.00;96927.75;5064650;28;20689;-60
2022/10/25 01:52:57;;;;;;;2.50;2.30;;;;;;;12.52;100.00;96934.72;5082534;28;20199;-60
2022/10/25 01:55:27;;;;;;;4.23;2.27;;;;;;;12.51;100.00;96935.69;5082577;28;20294;-60
2022/10/25 01:58:01;;;;;;;3.90;2.33;;;;;;;12.48;100.00;96938.66;5064478;28;20258;-60
2022/10/25 02:00:30;;;;;;;2.13;1.80;;;;;;;12.49;100.00;96945.63;5083268;28;20201;-60
2022/10/25 02:03:18;;;;;;;5.10;2.40;;;;;;;12.48;100.00;96939.50;5082937;28;20301;-60
2022/10/25 02:05:55;;;;;;;3.00;2.07;;;;;;;12.47;100.00;96936.97;5081914;28;20202;-60
2022/10/25 02:08:30;;;;;;;4.23;2.00;;;;;;;12.40;100.00;96942.03;5082456;28;20582;-60
2022/10/25 02:11:01;;;;;;;2.37;1.83;;;;;;;12.36;100.00;96945.16;5082874;28;20692;-60
2022/10/25 02:13:32;;;;;;;2.70;1.77;;;;;;;12.35;100.00;96943.47;5092990;28;20263;-59
2022/10/25 02:16:02;;;;;;;2.80;2.17;;;;;;;12.34;100.00;96941.78;5092767;28;20198;-60
2022/10/25 02:18:33;;;;;;;4.60;2.50;;;;;;;12.32;100.00;96938.47;5088507;28;20257;-59
2022/10/25 02:21:01;;;;;;;4.83;1.80;;;;;;;12.34;100.00;96947.09;5082618;28;20688;-61
2022/10/25 02:23:28;;;;;;;5.00;2.23;;;;;;;12.25;100.00;96953.28;5081727;28;20731;-59
2022/10/25 02:25:55;;;;;;;3.73;1.60;;;;;;;12.27;100.00;96951.31;5081963;28;20289;-60
2022/10/25 02:28:25;;;;;;;3.40;1.90;;;;;;;12.20;100.00;96956.38;5081285;28;20222;-60
2022/10/25 02:30:53;;;;;;;4.83;1.97;;;;;;;12.17;100.00;96961.97;5081111;28;20301;-60
2022/10/25 02:33:19;;;;;;;2.40;2.10;;;;;;;12.13;100.00;96955.28;5081672;28;20205;-60
2022/10/25 02:36:04;;;;;;;2.40;2.00;;;;;;;12.11;100.00;96945.81;5081699;28;20285;-60
2022/10/25 02:38:31;;;;;;;4.20;1.60;;;;;;;12.13;100.00;96943.84;5080410;28;20278;-59
2022/10/25 02:40:58;;;;;;;3.73;1.60;;;;;;;12.08;100.00;96951.41;5081446;28;20310;-60
2022/10/25 02:43:25;;;;;;;3.70;1.63;;;;;;;12.06;100.00;96953.34;5081457;28;20285;-60
2022/10/25 02:45:52;;;;;;;3.60;1.90;;;;;;;12.06;100.00;96956.00;5081309;28;20277;-61
2022/10/25 02:48:18;;;;;;;6.53;1.97;;;;;;;12.04;100.00;96950.03;5081722;28;21396;-60
2022/10/25 02:50:45;;;;;;;4.40;1.83;;;;;;;12.00;100.00;96960.06;5081173;28;20264;-60
2022/10/25 02:53:13;;;;;;;2.07;1.60;;;;;;;12.01;100.00;96960.91;5081061;28;20285;-60
2022/10/25 02:55:40;;;;;;;5.77;1.90;;;;;;;11.98;100.00;96946.94;5081339;28;20234;-60
2022/10/25 02:58:10;;;;;;;1.80;1.70;;;;;;;11.98;100.00;96952.25;5081206;28;20222;-60
2022/10/25 03:00:36;;;;;;;3.80;1.97;;;;;;;11.91;100.00;96951.16;5081243;28;20299;-60
2022/10/25 03:03:03;;;;;;;3.07;1.60;;;;;;;11.92;100.00;96950.19;5081178;28;20284;-60
2022/10/25 03:05:31;;;;;;;1.90;1.60;;;;;;;11.85;100.00;96954.38;5080734;28;20289;-60
2022/10/25 03:07:58;;;;;;;3.17;1.80;;;;;;;11.84;100.00;96942.09;5081178;28;20372;-61
2022/10/25 03:10:26;;;;;;;7.00;2.97;;;;;;;11.85;100.00;96941.13;5086476;28;20218;-61
2022/10/25 03:12:52;;;;;;;2.03;1.60;;;;;;;11.80;100.00;96943.38;5087686;28;20328;-60
2022/10/25 03:15:19;;;;;;;3.00;1.80;;;;;;;11.81;100.00;96950.34;5087832;28;20305;-60
2022/10/25 03:17:46;;;;;;;2.23;1.83;;;;;;;11.73;100.00;96947.56;5087322;28;20211;-60
2022/10/25 03:20:12;;;;;;;2.80;2.03;;;;;;;11.76;100.00;96941.19;5088425;28;20212;-59
2022/10/25 03:22:39;;;;;;;1.93;1.80;;;;;;;11.72;100.00;96939.78;5087825;28;20224;-61
2022/10/25 03:25:07;;;;;;;1.93;1.60;;;;;;;11.74;100.00;96945.75;5087587;28;20274;-61
2022/10/25 03:27:37;;;;;;;1.77;1.67;;;;;;;11.73;100.00;96950.22;5087826;28;20202;-61
2022/10/25 03:30:04;;;;;;;7.93;2.00;;;;;;;11.61;100.00;96947.84;5088349;28;20588;-60
2022/10/25 03:32:31;;;;;;;3.60;1.53;;;;;;;11.56;100.00;96945.63;5087339;28;20328;-59
2022/10/25 03:34:57;;;;;;;4.00;1.80;;;;;;;11.58;100.00;96959.56;5087868;28;20407;-59
2022/10/25 03:37:24;;;;;;;2.20;2.00;;;;;;;11.58;100.00;96948.97;5087213;28;20225;-61
2022/10/25 03:39:52;;;;;;;1.70;1.60;;;;;;;11.53;100.00;96951.22;5087621;28;20225;-60
2022/10/25 03:42:19;;;;;;;4.57;1.70;;;;;;;11.49;100.00;96957.75;5087830;28;20234;-61
2022/10/25 03:44:49;;;;;;;3.60;1.67;;;;;;;11.53;100.00;96961.81;5088066;28;20288;-60
2022/10/25 03:47:16;;;;;;;4.67;2.07;;;;;;;11.54;100.00;96965.28;5093460;28;20805;-61
2022/10/25 03:49:43;;;;;;;1.60;1.50;;;;;;;11.50;100.00;96954.16;5107946;28;20214;-60
2022/10/25 03:52:10;;;;;;;1.90;1.80;;;;;;;11.47;100.00;96949.13;5103087;28;21383;-60
2022/10/25 03:54:37;;;;;;;4.27;1.80;;;;;;;11.51;100.00;96950.53;5089793;28;20237;-60
2022/10/25 03:57:04;;;;;;;3.93;1.40;;;;;;;11.48;100.00;96953.44;5110186;28;20204;-60
2022/10/25 03:59:31;;;;;;;2.83;2.00;;;;;;;11.49;100.00;96947.16;5113223;28;20197;-60
2022/10/25 04:02:00;;;;;;;3.30;1.60;;;;;;;11.45;100.00;96959.84;5098234;28;20190;-60
2022/10/25 04:04:27;;;;;;;3.00;1.50;;;;;;;11.50;100.00;96964.72;5087175;28;20642;-60
2022/10/25 04:06:54;;;;;;;2.73;1.80;;;;;;;11.44;100.00;96973.25;5087291;28;20294;-60
2022/10/25 04:09:20;;;;;;;3.73;1.60;;;;;;;11.41;100.00;96968.22;5087019;28;20308;-60
2022/10/25 04:11:47;;;;;;;2.53;1.93;;;;;;;11.39;100.00;96962.22;5087388;28;20290;-60
2022/10/25 04:14:14;;;;;;;1.63;1.53;;;;;;;11.38;100.00;96968.50;5087263;28;20896;-61
2022/10/25 04:16:40;;;;;;;3.07;1.90;;;;;;;11.31;100.00;96962.09;5087078;28;20263;-61
2022/10/25 04:19:08;;;;;;;4.50;2.03;;;;;;;11.25;100.00;96960.00;5087174;28;20286;-60
2022/10/25 04:21:35;;;;;;;1.83;1.73;;;;;;;11.28;100.00;96968.50;5083540;28;20202;-60
2022/10/25 04:24:01;;;;;;;1.80;1.70;;;;;;;11.23;100.00;96957.47;5084211;28;20306;-60
2022/10/25 04:26:28;;;;;;;7.07;1.80;;;;;;;11.19;100.00;96957.91;5083708;28;20234;-60
2022/10/25 04:28:55;;;;;;;1.60;1.50;;;;;;;11.15;100.00;96956.53;5084282;28;20321;-61
2022/10/25 04:31:23;;;;;;;2.80;1.80;;;;;;;11.19;100.00;96968.50;5084074;28;20606;-60
2022/10/25 04:33:50;;;;;;;3.23;1.50;;;;;;;11.26;100.00;96964.34;5083587;28;20289;-61
2022/10/25 04:36:18;;;;;;;1.63;1.37;;;;;;;11.29;100.00;96961.41;5083959;28;20289;-61
2022/10/25 04:38:47;;;;;;;2.70;1.80;;;;;;;11.34;100.00;96956.50;5084106;28;20251;-60
2022/10/25 04:41:14;;;;;;;7.43;1.80;;;;;;;11.36;100.00;96959.88;5083726;28;20550;-61
2022/10/25 04:43:41;;;;;;;2.77;1.27;;;;;;;11.37;100.00;96949.13;5083034;28;20608;-60
2022/10/25 04:46:08;;;;;;;5.73;1.70;;;;;;;11.40;100.00;96950.66;5083969;28;20290;-60
2022/10/25 04:48:36;;;;;;;5.63;1.73;;;;;;;11.36;100.00;96943.97;5083452;28;20313;-60
2022/10/25 04:51:03;;;;;;;2.07;1.70;;;;;;;11.32;100.00;96948.72;5083383;28;20248;-60
2022/10/25 04:53:31;;;;;;;4.03;1.77;;;;;;;11.29;100.00;96949.00;5083615;28;20238;-60
2022/10/25 04:55:58;;;;;;;2.67;1.87;;;;;;;11.30;100.00;96955.94;5083636;28;20224;-60
2022/10/25 04:58:25;;;;;;;3.47;1.60;;;;;;;11.24;100.00;96963.63;5083072;28;20286;-60
2022/10/25 05:00:54;;;;;;;2.53;1.53;;;;;;;11.26;100.00;96969.63;5082805;28;20310;-60
2022/10/25 05:03:20;;;;;;;3.27;1.73;;;;;;;11.18;100.00;96961.53;5082753;28;20195;-60
2022/10/25 05:05:47;;;;;;;2.50;2.13;;;;;;;11.20;100.00;96964.88;5084023;28;20214;-61
2022/10/25 05:08:14;;;;;;;5.40;2.50;;;;;;;11.23;100.00;96964.63;5083094;28;20297;-59
2022/10/25 05:10:42;;;;;;;2.97;1.93;;;;;;;11.29;100.00;96958.75;5082315;28;20301;-60
2022/10/25 05:13:08;;;;;;;1.90;1.80;;;;;;;11.33;100.00;96960.16;5085753;28;20229;-60
2022/10/25 05:15:35;;;;;;;3.57;1.77;;;;;;;11.33;100.00;96960.16;5083689;28;20296;-60
2022/10/25 05:18:02;;;;;;;2.33;2.10;;;;;;;11.32;100.00;96954.00;5083354;28;20964;-60
2022/10/25 05:20:28;;;;;;;5.60;2.00;;;;;;;11.32;100.00;96959.31;5082959;28;20607;-60
2022/10/25 05:22:55;;;;;;;5.90;1.87;;;;;;;11.31;100.00;96960.28;5082347;28;20643;-60
2022/10/25 05:25:22;;;;;;;3.27;1.97;;;;;;;11.28;100.00;96962.38;5082519;28;20199;-60
2022/10/25 05:27:49;;;;;;;2.00;1.80;;;;;;;11.32;100.00;96967.25;5082768;28;20292;-59
2022/10/25 05:30:16;;;;;;;2.17;1.90;;;;;;;11.31;100.00;96968.22;5082655;28;20230;-60
2022/10/25 05:32:43;;;;;;;2.67;2.10;;;;;;;11.31;100.00;96973.50;5081810;28;20281;-61
2022/10/25 05:35:10;;;;;;;7.80;2.13;;;;;;;11.31;100.00;96972.69;5082652;28;20214;-60
2022/10/25 05:37:36;;;;;;;3.37;1.80;;;;;;;11.27;100.00;96973.91;5082830;28;20288;-60
2022/10/25 05:40:03;;;;;;;4.00;1.77;;;;;;;11.29;100.00;96969.34;5081783;28;20261;-60
2022/10/25 05:42:30;;;;;;;2.13;1.60;;;;;;;11.28;100.00;96971.16;5082632;28;20285;-60
2022/10/25 05:44:58;;;;;;;4.67;1.93;;;;;;;11.29;100.00;96969.34;5082782;28;20558;-61
2022/10/25 05:47:25;;;;;;;2.47;1.80;;;;;;;11.28;100.00;96967.66;5082587;28;20249;-60
2022/10/25 05:49:51;;;;;;;2.80;1.70;;;;;;;11.25;100.00;96973.25;5081796;28;20255;-60
2022/10/25 05:52:18;;;;;;;1.83;1.73;;;;;;;11.27;100.00;96971.28;5082163;28;20302;-60
2022/10/25 05:54:44;;;;;;;2.23;1.87;;;;;;;11.21;100.00;96977.13;5082251;28;20594;-61
2022/10/25 05:57:11;;;;;;;3.50;1.47;;;;;;;11.18;100.00;96977.41;5083668;28;20281;-61
2022/10/25 05:59:38;;;;;;;2.83;1.80;;;;;;;11.19;100.00;96982.59;5083310;28;20201;-60
2022/10/25 06:02:06;;;;;;;6.23;1.90;;;;;;;11.21;100.00;96980.63;5083644;28;20297;-60
2022/10/25 06:04:32;;;;;;;4.47;1.77;;;;;;;11.27;100.00;96982.72;5082924;28;20674;-60
2022/10/25 06:06:59;;;;;;;4.00;1.70;;;;;;;11.32;100.00;96998.19;5083075;28;20583;-60
2022/10/25 06:09:26;;;;;;;3.90;1.57;;;;;;;11.33;100.00;96997.22;5081651;28;20227;-60
2022/10/25 06:11:52;;;;;;;9.40;1.87;;;;;;;11.30;100.00;96997.50;5082392;28;20296;-60
2022/10/25 06:14:19;;;;;;;3.17;1.90;;;;;;;11.36;100.00;96996.94;5081356;28;20305;-60
2022/10/25 06:16:46;;;;;;;5.13;2.33;;;;;;;11.37;100.00;96988.03;5082597;28;20293;-60
2022/10/25 06:19:14;;;;;;;2.17;1.93;;;;;;;11.42;100.00;96991.91;5081937;28;20289;-61
2022/10/25 06:21:40;;;;;;;5.93;2.10;;;;;;;11.46;100.00;96997.78;5082408;28;20224;-61
2022/10/25 06:24:09;;;;;;;5.60;2.50;;;;;;;11.52;100.00;96996.34;5081349;28;20660;-61
2022/10/25 06:26:35;;;;;;;3.40;2.20;;;;;;;11.54;100.00;97000.56;5082508;28;20281;-60
2022/10/25 06:29:04;;;;;;;4.77;2.30;;;;;;;11.60;100.00;97000.00;5085965;28;20758;-61
2022/10/25 06:31:32;;;;;;;3.33;2.23;;;;;;;11.66;100.00;96998.59;5092613;28;20586;-61
2022/10/25 06:33:59;;;;;;;3.50;3.20;;;;;;;11.69;100.00;97009.72;5088389;28;20296;-60
2022/10/25 06:36:27;;;;;;;7.50;5.60;;;;;;;11.72;100.00;97011.31;5083088;28;20205;-61
2022/10/25 06:38:54;;;;;;;8.50;3.20;;;;;;;11.74;100.00;97018.13;5082269;28;20233;-61
2022/10/25 06:41:22;;;;;;;5.70;2.60;;;;;;;11.81;100.00;97016.59;5081559;28;20222;-60
2022/10/25 06:43:49;;;;;;;4.20;2.80;;;;;;;11.86;100.00;97019.66;5081775;28;20229;-61
2022/10/25 06:46:20;;;;;;;7.13;3.70;;;;;;;11.89;100.00;97019.38;5080967;28;20709;-61
2022/10/25 06:48:47;;;;;;;10.80;6.67;;;;;;;11.94;100.00;97025.06;5080820;28;20194;-61
2022/10/25 06:51:14;;;;;;;10.63;4.30;;;;;;;11.95;100.00;97029.41;5081010;28;20260;-60
2022/10/25 06:53:42;;;;;;;6.07;4.37;;;;;;;12.01;100.00;97027.19;5081487;28;20277;-60
2022/10/25 06:56:10;;;;;;;3.60;2.63;;;;;;;12.08;100.00;97033.59;5081069;28;20195;-60
2022/10/25 06:58:37;;;;;;;8.73;3.13;;;;;;;12.10;100.00;97029.81;5081041;28;20196;-61
2022/10/25 07:01:05;;;;;;;5.57;3.23;;;;;;;12.14;100.00;97033.84;5081785;28;20202;-61
2022/10/25 07:03:34;;;;;;;3.10;2.80;;;;;;;12.24;100.00;97031.16;5081060;28;20293;-61
2022/10/25 07:06:01;;;;;;;7.33;3.17;;;;;;;12.27;100.00;97031.72;5081417;28;20202;-61
2022/10/25 07:08:28;;;;;;;3.70;3.00;;;;;;;12.33;100.00;97030.28;5081522;28;20229;-61
2022/10/25 07:10:57;;;;;;;3.53;3.23;;;;;;;12.35;100.00;97031.84;5081385;28;20346;-60
2022/10/25 07:13:23;;;;;;;3.33;3.00;;;;;;;12.37;100.00;97034.31;5081070;28;20244;-61
2022/10/25 07:15:50;;;;;;;4.73;3.17;;;;;;;12.39;100.00;97033.22;5081069;28;20558;-60
2022/10/25 07:18:17;;;;;;;4.20;2.83;;;;;;;12.40;100.00;97036.69;5080570;28;20213;-60
2022/10/25 07:20:47;;;;;;;5.37;3.30;;;;;;;12.45;100.00;97039.75;5080992;28;20380;-60
2022/10/25 07:23:14;;;;;;;4.10;3.30;;;;;;;12.51;100.00;97039.16;5081080;28;20198;-59
2022/10/25 07:25:40;;;;;;;4.37;3.07;;;;;;;12.46;100.00;97044.09;5080865;28;20198;-61
2022/10/25 07:28:08;;;;;;;5.17;2.87;;;;;;;12.45;100.00;97045.06;5080739;28;20266;-61
2022/10/25 07:30:35;;;;;;;4.73;2.97;;;;;;;12.43;100.00;97041.72;5080550;28;20677;-60
2022/10/25 07:33:03;;;;;;;5.83;2.93;;;;;;;12.46;100.00;97046.72;5080504;28;20634;-60
2022/10/25 07:35:29;;;;;;;2.83;2.53;;;;;;;12.43;100.00;97052.34;5084626;28;20207;-65
2022/10/25 07:37:56;;;;;;;4.03;3.43;;;;;;;12.39;100.00;97050.94;5094949;28;20658;-60
2022/10/25 07:40:23;;;;;;;5.47;3.33;;;;;;;12.43;100.00;97049.69;5093652;28;20222;-61
2022/10/25 07:42:49;;;;;;;6.40;3.10;;;;;;;12.43;100.00;97058.44;5081274;28;20226;-61
2022/10/25 07:45:17;;;;;;;4.47;2.80;;;;;;;12.43;100.00;97061.09;5091484;28;20214;-60
2022/10/25 07:47:44;;;;;;;5.67;3.13;;;;;;;12.50;100.00;97058.72;5096453;28;20198;-61
2022/10/25 07:50:11;;;;;;;4.10;2.87;;;;;;;12.58;100.00;97061.47;5090865;28;20554;-61
2022/10/25 07:52:37;;;;;;;4.60;3.20;;;;;;;12.64;100.00;97060.91;5081840;28;20706;-61
2022/10/25 07:55:05;;;;;;;5.70;3.50;;;;;;;12.70;100.00;97070.94;5083647;28;20535;-60
2022/10/25 07:57:31;;;;;;;5.70;3.93;;;;;;;12.73;100.00;97060.03;5086556;28;20293;-60
2022/10/25 07:59:58;;;;;;;6.07;4.27;;;;;;;12.74;100.00;97059.06;5086113;28;20228;-61
2022/10/25 08:02:26;;;;;;;4.23;3.60;;;;;;;12.81;100.00;97057.47;5085857;28;20208;-60
2022/10/25 08:04:53;;;;;;;4.60;4.20;;;;;;;12.87;100.00;97059.53;5085555;28;20225;-61
2022/10/25 08:07:19;;;;;;;4.20;3.87;;;;;;;12.89;100.00;97062.88;5088082;28;20216;-61
2022/10/25 08:09:46;;;;;;;6.43;4.90;;;;;;;12.96;100.00;97063.16;5087742;28;20228;-60
2022/10/25 08:12:13;;;;;;;3.87;3.63;;;;;;;13.02;100.00;97059.06;5084380;28;20289;-61
2022/10/25 08:14:39;;;;;;;6.67;4.20;;;;;;;13.07;100.00;97055.00;5083736;28;20305;-61
2022/10/25 08:17:07;;;;;;;7.10;4.73;;;;;;;13.11;100.00;97058.22;5084375;28;20198;-61
2022/10/25 08:19:35;;;;;;;5.80;4.70;;;;;;;13.17;100.00;97060.25;5083883;28;20232;-61
2022/10/25 08:22:01;;;;;;;5.77;4.13;;;;;;;13.23;100.00;97055.19;5083886;28;20206;-61
2022/10/25 08:24:28;;;;;;;4.63;4.10;;;;;;;13.28;100.00;97060.06;5084170;28;20290;-60
2022/10/25 08:26:55;;;;;;;4.37;3.97;;;;;;;13.36;100.00;97053.00;5083724;28;20664;-60
2022/10/25 08:29:21;;;;;;;5.10;4.13;;;;;;;13.42;100.00;97051.56;5084166;28;20602;-61
2022/10/25 08:31:48;;;;;;;5.07;4.30;;;;;;;13.46;100.00;97047.63;5083924;28;20302;-60
2022/10/25 08:34:14;;;;;;;6.53;4.37;;;;;;;13.53;100.00;97042.56;5083919;28;20237;-60
2022/10/25 08:36:42;;;;;;;4.73;4.00;;;;;;;13.60;100.00;97039.13;5083442;28;20298;-61
2022/10/25 08:39:09;;;;;;;4.40;4.00;;;;;;;13.68;100.00;97043.66;5083372;28;20221;-60
2022/10/25 08:41:43;;;;;;;3.93;3.60;;;;;;;13.71;100.00;97033.56;5083352;28;20296;-61
2022/10/25 08:44:20;;;;;;;5.03;3.73;;;;;;;13.77;100.00;97030.31;5083823;28;20198;-59
2022/10/25 08:46:54;;;;;;;4.60;4.20;;;;;;;13.85;100.00;97032.22;5083994;28;20305;-61
2022/10/25 08:49:25;;;;;;;5.10;3.20;;;;;;;13.95;100.00;97027.63;5084196;28;20280;-61
2022/10/25 08:51:54;;;;;;;5.18;4.05;;;;;;;14.06;100.00;97029.22;5083661;28;20243;-61
2022/10/25 08:54:25;;;;;;;4.83;3.70;;;;;;;14.21;100.00;97027.63;5083693;28;20292;-60
2022/10/25 08:56:53;;;;;;;5.07;4.00;;;;;;;14.34;100.00;97028.13;5084394;28;20280;-61
2022/10/25 08:59:25;;;;;;;3.53;3.10;;;;;;;14.50;100.00;97030.84;5083409;28;20279;-60
2022/10/25 09:01:55;;;;;;;5.95;3.67;;;;;;;14.62;100.00;97024.28;5083562;28;20273;-61
2022/10/25 09:04:22;;;;;;;4.45;4.05;;;;;;;14.77;100.00;97024.53;5083153;28;20190;-61
2022/10/25 09:06:59;;;;;;;5.73;3.27;;;;;;;14.98;100.00;97030.28;5082386;28;20281;-60
2022/10/25 09:09:31;;;;;;;3.90;3.60;;;;;;;15.17;100.00;97024.66;5082716;28;20232;-61
2022/10/25 09:12:06;;;;;;;4.68;3.35;;;;;;;15.31;100.00;97029.34;5082562;28;20226;-60
2022/10/25 09:14:41;;;;;;;4.03;3.72;;;;;;;15.48;100.00;97019.53;5082968;28;20273;-61
2022/10/25 09:17:15;;;;;;;4.38;3.35;;;;;;;15.68;100.00;97025.47;5083436;28;20204;-61
2022/10/25 09:19:54;;;;;;;4.75;3.33;;;;;;;15.93;100.00;97025.31;5082582;28;20198;-61
2022/10/25 09:22:26;;;;;;;4.50;3.35;;;;;;;16.16;100.00;97021.94;5083047;28;20285;-61
2022/10/25 09:24:55;;;;;;;5.38;3.47;;;;;;;16.30;100.00;97024.75;5083546;28;20195;-60
2022/10/25 09:27:25;;;;;;;6.60;3.63;;;;;;;16.55;100.00;97028.22;5084397;28;20194;-61
2022/10/25 09:29:55;;;;;;;5.45;3.53;;;;;;;16.73;100.00;97015.50;5084232;28;20233;-60
2022/10/25 09:32:35;;;;;;;3.90;3.50;;;;;;;16.84;100.00;97015.16;5084560;28;20645;-61
2022/10/25 09:35:03;;;;;;;3.83;3.45;;;;;;;17.09;100.00;97013.19;5084366;28;20199;-61
2022/10/25 09:37:35;;;;;;;6.22;3.72;;;;;;;17.24;100.00;97013.31;5084909;28;20288;-61
2022/10/25 09:40:05;;;;;;;4.90;3.50;;;;;;;17.49;100.00;97024.69;5083174;28;20201;-60
2022/10/25 09:42:36;;;;;;;4.40;3.30;;;;;;;17.77;100.00;97013.31;5083213;28;20270;-60
2022/10/25 09:45:08;;;;;;;4.75;3.17;;;;;;;17.86;100.00;97017.59;5083524;28;20321;-60
2022/10/25 09:47:38;;;;;;;4.43;3.42;;;;;;;17.99;100.00;97010.81;5084487;28;20209;-61
2022/10/25 09:50:10;;;;;;;4.90;3.45;;;;;;;18.13;98.98;97015.38;5083037;28;20321;-60
2022/10/25 09:52:44;;;;;;;5.97;3.03;;;;;;;18.22;99.77;97017.78;5081859;28;20285;-60
2022/10/25 09:55:27;;;;;;;5.60;3.22;;;;;;;18.18;92.47;97016.47;5082606;28;20206;-61
2022/10/25 09:57:54;;;;;;;5.55;3.13;;;;;;;18.28;94.15;97021.59;5082401;28;20273;-61
2022/10/25 10:00:21;;;;;;;3.40;3.10;;;;;;;18.30;95.43;97022.25;5082398;28;20284;-61
2022/10/25 10:02:47;;;;;;;4.43;2.80;;;;;;;18.41;95.42;97027.16;5082574;28;20277;-60
2022/10/25 10:05:15;;;;;;;4.78;3.30;;;;;;;18.38;93.86;97024.84;5084065;28;20233;-60
2022/10/25 10:07:45;;;;;;;5.05;3.47;;;;;;;18.28;93.17;97022.41;5084235;28;20643;-61
2022/10/25 10:10:17;;;;;;;3.75;3.10;;;;;;;18.45;94.68;97023.09;5084344;28;20309;-60
2022/10/25 10:12:48;;;;;;;3.22;2.88;;;;;;;18.50;93.82;97017.16;5082232;28;20201;-61
2022/10/25 10:15:20;;;;;;;3.40;3.10;;;;;;;18.54;92.72;97016.66;5083193;28;20263;-60
2022/10/25 10:17:46;;;;;;;5.45;2.90;;;;;;;18.59;89.91;97022.31;5082062;28;20280;-61
2022/10/25 10:20:16;;;;;;;3.28;2.78;;;;;;;18.64;93.35;97017.22;5062332;28;20600;-60
2022/10/25 10:22:52;;;;;;;4.10;3.03;;;;;;;18.74;91.61;97011.59;5081175;28;20288;-61
2022/10/25 10:25:21;;;;;;;3.47;3.08;;;;;;;18.70;91.46;97011.16;5082154;28;20212;-61
2022/10/25 10:27:49;;;;;;;4.65;2.80;;;;;;;18.71;91.21;97018.16;5082753;28;20533;-61
2022/10/25 10:30:22;;;;;;;4.78;2.80;;;;;;;18.88;92.79;97010.78;5081331;28;20329;-60
2022/10/25 10:32:53;;;;;;;5.18;3.20;;;;;;;18.97;90.50;97003.44;5081161;28;20199;-61
2022/10/25 10:35:28;;;;;;;3.83;3.33;;;;;;;18.83;87.58;97007.81;5080889;28;20301;-61
2022/10/25 10:38:13;;;;;;;3.78;3.13;;;;;;;18.72;86.75;97003.75;5081619;28;20280;-60
2022/10/25 10:40:40;;;;;;;4.78;3.10;;;;;;;18.74;86.76;97007.06;5081156;28;20285;-61
2022/10/25 10:43:22;;;;;;;3.17;2.88;;;;;;;18.79;88.15;97004.66;5081369;28;20281;-60
2022/10/25 10:45:49;;;;;;;6.15;3.40;;;;;;;18.93;88.72;96996.78;5081185;28;20285;-60
2022/10/25 10:48:20;;;;;;;6.50;3.25;;;;;;;19.01;90.76;96996.69;5081264;28;20210;-60
2022/10/25 10:50:48;;;;;;;3.72;2.60;;;;;;;19.02;84.33;97001.06;5081117;28;20325;-60
2022/10/25 10:53:20;;;;;;;6.05;3.22;;;;;;;19.02;84.77;96995.69;5080892;28;20203;-61
2022/10/25 10:55:49;;;;;;;5.32;2.85;;;;;;;19.09;87.15;96983.19;5080738;28;20631;-60
2022/10/25 10:58:17;;;;;;;3.20;2.90;;;;;;;19.30;89.13;96986.75;5081060;28;20203;-62
2022/10/25 11:00:49;;;;;;;6.35;3.10;;;;;;;19.46;88.41;96980.34;5080769;28;20338;-61
2022/10/25 11:03:45;;;;;;;7.97;3.42;;;;;;;19.44;85.95;96977.03;5080955;28;20268;-61
2022/10/25 11:06:14;;;;;;;4.28;2.95;;;;;;;19.55;88.32;96984.59;5081318;28;20301;-60
2022/10/25 11:08:42;;;;;;;4.10;2.95;;;;;;;19.40;86.58;96975.72;5081943;28;20289;-60
2022/10/25 11:11:14;;;;;;;4.57;3.08;;;;;;;19.37;85.57;96968.91;5082698;28;20231;-60
2022/10/25 11:13:45;;;;;;;3.60;2.53;;;;;;;19.53;86.81;96972.38;5081898;28;20293;-60
2022/10/25 11:16:28;;;;;;;5.35;2.88;;;;;;;19.33;82.78;96974.81;5082373;28;20211;-61
2022/10/25 11:19:08;;;;;;;4.90;3.00;;;;;;;19.33;84.08;96964.94;5082304;28;20214;-61
2022/10/25 11:21:47;;;;;;;4.22;3.10;;;;;;;19.29;84.18;96963.66;5081289;28;20285;-60
2022/10/25 11:24:25;;;;;;;3.05;2.70;;;;;;;19.43;84.78;96958.44;5081270;28;20285;-60
2022/10/25 11:26:56;;;;;;;4.85;3.08;;;;;;;19.55;84.44;96959.59;5083835;28;20289;-61
2022/10/25 11:29:41;;;;;;;4.40;2.78;;;;;;;19.48;82.98;96961.41;5082427;28;20214;-60
2022/10/25 11:32:25;;;;;;;3.30;2.70;;;;;;;19.43;84.96;96951.22;5084475;28;20736;-61
2022/10/25 11:34:56;;;;;;;9.95;3.13;;;;;;;19.49;84.75;96953.13;5083236;28;20328;-60
2022/10/25 11:37:28;;;;;;;4.70;2.88;;;;;;;19.52;84.79;96960.81;5085344;28;20289;-60